EGPB/LSI METAR and TAF weather

Enter ICAO airport designator
Station Type Date Time Source
EGPB METAR 2022/01/29 10:20 UTC NOAA

EGPB 291020Z 32031G46KT 7000 -RA FEW010 SCT013 BKN020 05/04 Q0990 RERA


Station Type Date Time Source
EGPB Decoded METAR 2022/01/29 10:20 UTC NOAA

Sumburgh Cape , United Kingdom (EGPB) 59-53N 001-18W
Jan 29, 2022 - 05:20 AM EST / 2022.01.29 1020 UTC
Wind: from the NW (320 degrees) at 36 MPH (31 KT) gusting to 53 MPH (46 KT):0
Visibility: 4 mile(s):0
Sky conditions: mostly cloudy
Weather: light rain
Temperature: 41 F (5 C)
Dew Point: 39 F (4 C)
Relative Humidity: 93%
Pressure (altimeter): 29.23 in. Hg (0990 hPa)
ob: EGPB 291020Z 32031G46KT 7000 -RA FEW010 SCT013 BKN020 05/04 Q0990 RERA
cycle: 10

Station Type Date Time Source
EGPB TAF UTC NOAA

Error!

Example: see airport list